Bargas, Spain
Current Conditions -  °F | °C
As of 9:00 PM on Tuesday 21 Oct 2014 (Local Time) from LEGT Reporting Station
Clear Clear  
Wind Chill: 73°   Ceiling: Unl
Heat Index: 73°   Visibility: 6mi
Dew Point: 54°   Wind: 8mph
Humidity: 50%   Direction: 280°W
Pressure: 30.33"   Gusts: NA
Location:  39.94°N, 4.02°W
Report Text: LEGT 211900Z 28007KT CAVOK 23/12 Q1027
Loading
Personal Weather Stations






























Interactive Weather Map
Tropical Storm Tracking
New forecast layout! Learn more

10-Day Weather Forecast

Advertisements
Track Severe Weather on mobile